sensor_id;sensor_type;location;lat;lon;timestamp;pressure;altitude;pressure_sealevel;temperature;humidity
60487;BME280;46327;39.866;-0.072;2022-09-09T00:02:16;101640.07;;;29.94;42.22
60487;BME280;46327;39.866;-0.072;2022-09-09T00:04:55;101639.94;;;30.13;42.28
60487;BME280;46327;39.866;-0.072;2022-09-09T00:07:33;101640.99;;;30.12;42.28
60487;BME280;46327;39.866;-0.072;2022-09-09T00:10:16;101640.18;;;30.19;42.05
60487;BME280;46327;39.866;-0.072;2022-09-09T00:12:51;101641.84;;;30.09;42.24
60487;BME280;46327;39.866;-0.072;2022-09-09T00:15:22;101637.83;;;30.17;42.08
60487;BME280;46327;39.866;-0.072;2022-09-09T00:17:56;101633.28;;;29.94;42.01
60487;BME280;46327;39.866;-0.072;2022-09-09T00:20:30;101632.98;;;30.15;41.92
60487;BME280;46327;39.866;-0.072;2022-09-09T00:23:03;101632.83;;;30.12;41.99
60487;BME280;46327;39.866;-0.072;2022-09-09T00:25:37;101629.90;;;30.11;42.01
60487;BME280;46327;39.866;-0.072;2022-09-09T00:28:13;101626.38;;;30.14;41.95
60487;BME280;46327;39.866;-0.072;2022-09-09T00:30:44;101626.54;;;30.04;42.08
60487;BME280;46327;39.866;-0.072;2022-09-09T00:33:13;101626.19;;;30.11;42.02
60487;BME280;46327;39.866;-0.072;2022-09-09T00:35:45;101625.91;;;30.11;41.98
60487;BME280;46327;39.866;-0.072;2022-09-09T00:38:18;101622.74;;;30.16;41.87
60487;BME280;46327;39.866;-0.072;2022-09-09T00:40:50;101621.63;;;30.12;41.92
60487;BME280;46327;39.866;-0.072;2022-09-09T00:43:27;101621.08;;;30.09;41.95
60487;BME280;46327;39.866;-0.072;2022-09-09T00:46:05;101618.78;;;30.08;41.99
60487;BME280;46327;39.866;-0.072;2022-09-09T00:48:46;101615.29;;;29.92;41.84
60487;BME280;46327;39.866;-0.072;2022-09-09T00:51:24;101608.16;;;30.34;41.94
60487;BME280;46327;39.866;-0.072;2022-09-09T00:54:07;101606.27;;;30.09;41.89
60487;BME280;46327;39.866;-0.072;2022-09-09T00:56:41;101603.32;;;30.13;41.70
60487;BME280;46327;39.866;-0.072;2022-09-09T00:59:24;101596.69;;;30.15;41.61
60487;BME280;46327;39.866;-0.072;2022-09-09T01:01:55;101590.82;;;30.10;41.69
60487;BME280;46327;39.866;-0.072;2022-09-09T01:04:29;101589.80;;;30.09;41.72
60487;BME280;46327;39.866;-0.072;2022-09-09T01:07:06;101587.63;;;30.08;41.69
60487;BME280;46327;39.866;-0.072;2022-09-09T01:09:40;101588.35;;;30.32;41.70
60487;BME280;46327;39.866;-0.072;2022-09-09T01:12:13;101586.41;;;30.07;41.58
60487;BME280;46327;39.866;-0.072;2022-09-09T01:14:44;101584.36;;;30.06;41.56
60487;BME280;46327;39.866;-0.072;2022-09-09T01:17:18;101583.55;;;30.28;41.56
60487;BME280;46327;39.866;-0.072;2022-09-09T01:19:59;101584.48;;;30.07;41.47
60487;BME280;46327;39.866;-0.072;2022-09-09T01:22:34;101586.06;;;30.10;41.32
60487;BME280;46327;39.866;-0.072;2022-09-09T01:25:20;101583.77;;;30.10;41.32
60487;BME280;46327;39.866;-0.072;2022-09-09T01:27:50;101583.09;;;30.35;41.35
60487;BME280;46327;39.866;-0.072;2022-09-09T01:30:19;101579.64;;;30.02;41.38
60487;BME280;46327;39.866;-0.072;2022-09-09T01:32:49;101581.61;;;30.03;41.40
60487;BME280;46327;39.866;-0.072;2022-09-09T01:35:27;101580.37;;;30.01;41.40
60487;BME280;46327;39.866;-0.072;2022-09-09T01:37:56;101576.17;;;30.30;41.37
60487;BME280;46327;39.866;-0.072;2022-09-09T01:40:25;101576.07;;;30.02;41.40
60487;BME280;46327;39.866;-0.072;2022-09-09T01:42:54;101574.72;;;29.98;41.46
60487;BME280;46327;39.866;-0.072;2022-09-09T01:45:22;101575.11;;;30.01;41.25
60487;BME280;46327;39.866;-0.072;2022-09-09T01:47:52;101578.42;;;30.04;41.25
60487;BME280;46327;39.866;-0.072;2022-09-09T01:50:20;101577.03;;;30.01;41.25
60487;BME280;46327;39.866;-0.072;2022-09-09T01:52:51;101578.45;;;30.33;41.20
60487;BME280;46327;39.866;-0.072;2022-09-09T01:55:28;101578.82;;;30.00;41.21
60487;BME280;46327;39.866;-0.072;2022-09-09T01:58:06;101577.42;;;30.03;41.19
60487;BME280;46327;39.866;-0.072;2022-09-09T02:00:42;101575.50;;;30.21;41.32
60487;BME280;46327;39.866;-0.072;2022-09-09T02:03:20;101574.48;;;29.90;41.28
60487;BME280;46327;39.866;-0.072;2022-09-09T02:05:58;101577.10;;;29.92;41.25
60487;BME280;46327;39.866;-0.072;2022-09-09T02:08:36;101579.96;;;29.96;41.12
60487;BME280;46327;39.866;-0.072;2022-09-09T02:11:11;101578.08;;;29.94;41.08
60487;BME280;46327;39.866;-0.072;2022-09-09T02:13:41;101574.42;;;29.95;41.08
60487;BME280;46327;39.866;-0.072;2022-09-09T02:16:14;101573.10;;;29.93;41.10
60487;BME280;46327;39.866;-0.072;2022-09-09T02:18:48;101573.44;;;29.94;41.08
60487;BME280;46327;39.866;-0.072;2022-09-09T02:21:18;101573.59;;;29.98;41.00
60487;BME280;46327;39.866;-0.072;2022-09-09T02:23:48;101571.89;;;29.89;41.11
60487;BME280;46327;39.866;-0.072;2022-09-09T02:26:17;101572.11;;;29.91;41.06
60487;BME280;46327;39.866;-0.072;2022-09-09T02:28:46;101573.45;;;29.93;41.05
60487;BME280;46327;39.866;-0.072;2022-09-09T02:31:15;101576.37;;;29.93;41.07
60487;BME280;46327;39.866;-0.072;2022-09-09T02:33:48;101576.49;;;29.89;41.11
60487;BME280;46327;39.866;-0.072;2022-09-09T02:36:20;101573.59;;;30.16;41.08
60487;BME280;46327;39.866;-0.072;2022-09-09T02:38:50;101573.81;;;29.81;41.21
60487;BME280;46327;39.866;-0.072;2022-09-09T02:41:20;101570.09;;;29.82;41.23
60487;BME280;46327;39.866;-0.072;2022-09-09T02:43:50;101567.75;;;29.89;41.08
60487;BME280;46327;39.866;-0.072;2022-09-09T02:46:27;101570.57;;;29.83;41.16
60487;BME280;46327;39.866;-0.072;2022-09-09T02:49:01;101570.32;;;30.11;41.11
60487;BME280;46327;39.866;-0.072;2022-09-09T02:51:37;101568.32;;;29.84;41.10
60487;BME280;46327;39.866;-0.072;2022-09-09T02:54:13;101570.24;;;29.84;41.12
60487;BME280;46327;39.866;-0.072;2022-09-09T02:56:49;101567.93;;;29.85;41.09
60487;BME280;46327;39.866;-0.072;2022-09-09T02:59:19;101568.64;;;29.85;41.04
60487;BME280;46327;39.866;-0.072;2022-09-09T03:01:46;101565.79;;;29.85;41.02
60487;BME280;46327;39.866;-0.072;2022-09-09T03:04:13;101562.43;;;29.81;41.03
60487;BME280;46327;39.866;-0.072;2022-09-09T03:06:41;101564.05;;;29.84;41.01
60487;BME280;46327;39.866;-0.072;2022-09-09T03:09:09;101562.67;;;29.83;40.99
60487;BME280;46327;39.866;-0.072;2022-09-09T03:11:36;101563.34;;;30.11;40.96
60487;BME280;46327;39.866;-0.072;2022-09-09T03:14:04;101562.90;;;29.83;40.94
60487;BME280;46327;39.866;-0.072;2022-09-09T03:16:31;101564.55;;;29.81;40.98
60487;BME280;46327;39.866;-0.072;2022-09-09T03:18:59;101561.80;;;30.05;41.01
60487;BME280;46327;39.866;-0.072;2022-09-09T03:21:28;101563.93;;;30.02;41.05
60487;BME280;46327;39.866;-0.072;2022-09-09T03:23:55;101564.91;;;30.00;41.04
60487;BME280;46327;39.866;-0.072;2022-09-09T03:26:22;101563.49;;;29.76;41.02
60487;BME280;46327;39.866;-0.072;2022-09-09T03:28:50;101563.04;;;29.80;40.85
60487;BME280;46327;39.866;-0.072;2022-09-09T03:31:18;101564.24;;;30.31;40.88
60487;BME280;46327;39.866;-0.072;2022-09-09T03:33:45;101564.75;;;29.76;40.97
60487;BME280;46327;39.866;-0.072;2022-09-09T03:36:13;101563.95;;;29.69;40.98
60487;BME280;46327;39.866;-0.072;2022-09-09T03:38:41;101566.23;;;29.73;40.99
60487;BME280;46327;39.866;-0.072;2022-09-09T03:41:09;101564.20;;;30.06;40.90
60487;BME280;46327;39.866;-0.072;2022-09-09T03:43:36;101563.28;;;29.74;40.98
60487;BME280;46327;39.866;-0.072;2022-09-09T03:46:04;101561.35;;;29.71;40.99
60487;BME280;46327;39.866;-0.072;2022-09-09T03:48:31;101564.53;;;29.73;40.98
60487;BME280;46327;39.866;-0.072;2022-09-09T03:50:59;101563.26;;;30.05;40.87
60487;BME280;46327;39.866;-0.072;2022-09-09T03:53:27;101563.53;;;29.80;40.82
60487;BME280;46327;39.866;-0.072;2022-09-09T03:55:56;101565.42;;;30.03;40.87
60487;BME280;46327;39.866;-0.072;2022-09-09T03:58:25;101563.31;;;29.66;40.99
60487;BME280;46327;39.866;-0.072;2022-09-09T04:00:54;101566.49;;;29.75;40.87
60487;BME280;46327;39.866;-0.072;2022-09-09T04:03:22;101567.71;;;30.24;40.83
60487;BME280;46327;39.866;-0.072;2022-09-09T04:05:50;101565.43;;;29.95;40.92
60487;BME280;46327;39.866;-0.072;2022-09-09T04:08:18;101564.99;;;29.62;40.97
60487;BME280;46327;39.866;-0.072;2022-09-09T04:10:45;101563.00;;;29.63;40.98
60487;BME280;46327;39.866;-0.072;2022-09-09T04:13:14;101566.98;;;29.67;40.89
60487;BME280;46327;39.866;-0.072;2022-09-09T04:15:41;101566.12;;;29.89;40.94
60487;BME280;46327;39.866;-0.072;2022-09-09T04:18:08;101567.84;;;30.11;40.91
60487;BME280;46327;39.866;-0.072;2022-09-09T04:20:36;101568.00;;;29.60;40.90
60487;BME280;46327;39.866;-0.072;2022-09-09T04:23:04;101572.74;;;29.64;40.85
60487;BME280;46327;39.866;-0.072;2022-09-09T04:25:31;101572.08;;;29.63;40.82
60487;BME280;46327;39.866;-0.072;2022-09-09T04:27:58;101572.00;;;29.56;40.86
60487;BME280;46327;39.866;-0.072;2022-09-09T04:30:26;101572.68;;;29.62;40.77
60487;BME280;46327;39.866;-0.072;2022-09-09T04:32:54;101576.07;;;29.57;40.81
60487;BME280;46327;39.866;-0.072;2022-09-09T04:35:21;101575.11;;;29.50;40.88
60487;BME280;46327;39.866;-0.072;2022-09-09T04:37:49;101577.34;;;29.65;40.66
60487;BME280;46327;39.866;-0.072;2022-09-09T04:40:16;101579.30;;;29.56;40.77
60487;BME280;46327;39.866;-0.072;2022-09-09T04:42:44;101581.99;;;29.58;40.72
60487;BME280;46327;39.866;-0.072;2022-09-09T04:45:11;101584.79;;;29.58;40.69
60487;BME280;46327;39.866;-0.072;2022-09-09T04:47:39;101585.29;;;29.55;40.69
60487;BME280;46327;39.866;-0.072;2022-09-09T04:50:08;101585.70;;;29.50;40.75
60487;BME280;46327;39.866;-0.072;2022-09-09T04:52:35;101588.54;;;29.52;40.69
60487;BME280;46327;39.866;-0.072;2022-09-09T04:55:04;101588.89;;;29.36;40.52
60487;BME280;46327;39.866;-0.072;2022-09-09T04:57:31;101592.50;;;29.49;40.54
60487;BME280;46327;39.866;-0.072;2022-09-09T04:59:58;101590.29;;;29.78;40.51
60487;BME280;46327;39.866;-0.072;2022-09-09T05:02:26;101592.99;;;29.51;40.44
60487;BME280;46327;39.866;-0.072;2022-09-09T05:04:53;101588.98;;;30.00;40.38
60487;BME280;46327;39.866;-0.072;2022-09-09T05:07:20;101592.09;;;29.49;40.41
60487;BME280;46327;39.866;-0.072;2022-09-09T05:09:48;101592.43;;;29.42;40.50
60487;BME280;46327;39.866;-0.072;2022-09-09T05:12:15;101594.53;;;29.44;40.48
60487;BME280;46327;39.866;-0.072;2022-09-09T05:14:43;101595.96;;;29.42;40.53
60487;BME280;46327;39.866;-0.072;2022-09-09T05:17:11;101595.36;;;29.71;40.46
60487;BME280;46327;39.866;-0.072;2022-09-09T05:19:38;101593.79;;;29.47;40.33
60487;BME280;46327;39.866;-0.072;2022-09-09T05:22:05;101597.12;;;29.53;40.28
60487;BME280;46327;39.866;-0.072;2022-09-09T05:24:34;101594.43;;;29.45;40.31
60487;BME280;46327;39.866;-0.072;2022-09-09T05:27:02;101595.12;;;29.71;40.30
60487;BME280;46327;39.866;-0.072;2022-09-09T05:29:29;101594.98;;;29.68;40.38
60487;BME280;46327;39.866;-0.072;2022-09-09T05:31:56;101593.16;;;29.47;40.24
60487;BME280;46327;39.866;-0.072;2022-09-09T05:34:24;101592.44;;;29.45;40.24
60487;BME280;46327;39.866;-0.072;2022-09-09T05:36:52;101595.06;;;29.68;40.31
60487;BME280;46327;39.866;-0.072;2022-09-09T05:39:19;101596.38;;;29.50;40.21
60487;BME280;46327;39.866;-0.072;2022-09-09T05:41:47;101597.98;;;29.42;40.29
60487;BME280;46327;39.866;-0.072;2022-09-09T05:44:14;101604.63;;;29.35;40.41
60487;BME280;46327;39.866;-0.072;2022-09-09T05:46:42;101602.93;;;29.63;40.28
60487;BME280;46327;39.866;-0.072;2022-09-09T05:49:09;101602.16;;;29.67;40.31
60487;BME280;46327;39.866;-0.072;2022-09-09T05:51:37;101604.87;;;29.38;40.30
60487;BME280;46327;39.866;-0.072;2022-09-09T05:54:05;101606.32;;;29.61;40.37
60487;BME280;46327;39.866;-0.072;2022-09-09T05:56:34;101608.99;;;29.39;40.20
60487;BME280;46327;39.866;-0.072;2022-09-09T05:59:01;101612.35;;;29.61;40.23
60487;BME280;46327;39.866;-0.072;2022-09-09T06:01:30;101617.38;;;29.56;40.34
60487;BME280;46327;39.866;-0.072;2022-09-09T06:03:57;101622.39;;;29.74;40.39
60487;BME280;46327;39.866;-0.072;2022-09-09T06:06:27;101625.71;;;29.28;40.28
60487;BME280;46327;39.866;-0.072;2022-09-09T06:08:56;101627.05;;;29.29;40.25
60487;BME280;46327;39.866;-0.072;2022-09-09T06:11:25;101627.74;;;29.56;40.30
60487;BME280;46327;39.866;-0.072;2022-09-09T06:13:53;101630.37;;;29.25;40.34
60487;BME280;46327;39.866;-0.072;2022-09-09T06:16:22;101629.14;;;29.24;40.33
60487;BME280;46327;39.866;-0.072;2022-09-09T06:18:50;101631.81;;;29.26;40.25
60487;BME280;46327;39.866;-0.072;2022-09-09T06:21:20;101633.89;;;29.30;40.20
60487;BME280;46327;39.866;-0.072;2022-09-09T06:23:48;101637.53;;;29.50;40.25
60487;BME280;46327;39.866;-0.072;2022-09-09T06:26:17;101641.74;;;29.52;40.19
60487;BME280;46327;39.866;-0.072;2022-09-09T06:28:44;101644.31;;;29.21;40.30
60487;BME280;46327;39.866;-0.072;2022-09-09T06:31:13;101645.40;;;29.21;40.30
60487;BME280;46327;39.866;-0.072;2022-09-09T06:33:42;101651.80;;;29.49;40.27
60487;BME280;46327;39.866;-0.072;2022-09-09T06:36:12;101650.41;;;29.15;40.33
60487;BME280;46327;39.866;-0.072;2022-09-09T06:38:39;101649.87;;;29.54;40.12
60487;BME280;46327;39.866;-0.072;2022-09-09T06:41:08;101650.23;;;29.24;40.23
60487;BME280;46327;39.866;-0.072;2022-09-09T06:43:36;101651.96;;;29.49;40.24
60487;BME280;46327;39.866;-0.072;2022-09-09T06:46:06;101653.81;;;29.42;40.30
60487;BME280;46327;39.866;-0.072;2022-09-09T06:48:34;101653.75;;;29.37;40.35
60487;BME280;46327;39.866;-0.072;2022-09-09T06:51:03;101655.43;;;29.64;40.28
60487;BME280;46327;39.866;-0.072;2022-09-09T06:53:30;101657.54;;;29.48;40.23
60487;BME280;46327;39.866;-0.072;2022-09-09T06:55:58;101653.29;;;29.30;40.43
60487;BME280;46327;39.866;-0.072;2022-09-09T06:58:25;101651.36;;;29.14;40.33
60487;BME280;46327;39.866;-0.072;2022-09-09T07:00:53;101651.43;;;29.22;40.27
60487;BME280;46327;39.866;-0.072;2022-09-09T07:03:28;101652.88;;;29.47;40.31
60487;BME280;46327;39.866;-0.072;2022-09-09T07:05:56;101655.91;;;29.15;40.42
60487;BME280;46327;39.866;-0.072;2022-09-09T07:08:23;101655.79;;;29.59;40.46
60487;BME280;46327;39.866;-0.072;2022-09-09T07:10:51;101658.20;;;29.12;40.42
60487;BME280;46327;39.866;-0.072;2022-09-09T07:13:19;101659.69;;;29.20;40.33
60487;BME280;46327;39.866;-0.072;2022-09-09T07:15:47;101659.30;;;29.38;40.45
60487;BME280;46327;39.866;-0.072;2022-09-09T07:18:14;101658.85;;;29.46;40.30
60487;BME280;46327;39.866;-0.072;2022-09-09T07:20:42;101660.37;;;29.11;40.39
60487;BME280;46327;39.866;-0.072;2022-09-09T07:23:09;101663.58;;;29.34;40.36
60487;BME280;46327;39.866;-0.072;2022-09-09T07:25:36;101671.32;;;29.33;40.31
60487;BME280;46327;39.866;-0.072;2022-09-09T07:28:04;101670.62;;;29.33;40.31
60487;BME280;46327;39.866;-0.072;2022-09-09T07:30:31;101669.99;;;29.38;40.20
60487;BME280;46327;39.866;-0.072;2022-09-09T07:32:59;101667.45;;;29.37;40.23
60487;BME280;46327;39.866;-0.072;2022-09-09T07:35:26;101667.01;;;29.14;40.20
60487;BME280;46327;39.866;-0.072;2022-09-09T07:37:54;101664.11;;;29.00;40.37
60487;BME280;46327;39.866;-0.072;2022-09-09T07:40:22;101667.19;;;29.15;40.14
60487;BME280;46327;39.866;-0.072;2022-09-09T07:42:49;101669.62;;;29.37;40.22
60487;BME280;46327;39.866;-0.072;2022-09-09T07:45:17;101669.79;;;29.64;40.17
60487;BME280;46327;39.866;-0.072;2022-09-09T07:47:44;101670.32;;;29.27;40.36
60487;BME280;46327;39.866;-0.072;2022-09-09T07:50:12;101671.98;;;28.93;40.43
60487;BME280;46327;39.866;-0.072;2022-09-09T07:52:39;101671.51;;;29.20;40.46
60487;BME280;46327;39.866;-0.072;2022-09-09T07:55:07;101672.33;;;29.32;40.33
60487;BME280;46327;39.866;-0.072;2022-09-09T07:57:34;101673.72;;;29.21;40.47
60487;BME280;46327;39.866;-0.072;2022-09-09T08:00:04;101675.19;;;28.91;40.58
60487;BME280;46327;39.866;-0.072;2022-09-09T08:02:31;101673.94;;;29.24;40.46
60487;BME280;46327;39.866;-0.072;2022-09-09T08:04:59;101674.42;;;29.27;40.45
60487;BME280;46327;39.866;-0.072;2022-09-09T08:07:26;101673.54;;;29.47;40.49
60487;BME280;46327;39.866;-0.072;2022-09-09T08:09:54;101677.09;;;29.31;40.45
60487;BME280;46327;39.866;-0.072;2022-09-09T08:12:21;101680.06;;;28.86;40.71
60487;BME280;46327;39.866;-0.072;2022-09-09T08:14:49;101678.22;;;29.30;40.50
60487;BME280;46327;39.866;-0.072;2022-09-09T08:17:16;101677.65;;;29.27;40.53
60487;BME280;46327;39.866;-0.072;2022-09-09T08:19:44;101681.26;;;29.15;40.71
60487;BME280;46327;39.866;-0.072;2022-09-09T08:22:11;101680.89;;;29.05;40.86
60487;BME280;46327;39.866;-0.072;2022-09-09T08:24:39;101681.31;;;28.77;40.86
60487;BME280;46327;39.866;-0.072;2022-09-09T08:27:06;101681.34;;;29.23;40.65
60487;BME280;46327;39.866;-0.072;2022-09-09T08:29:37;101676.84;;;29.02;40.57
60487;BME280;46327;39.866;-0.072;2022-09-09T08:32:04;101679.96;;;29.13;40.82
60487;BME280;46327;39.866;-0.072;2022-09-09T08:34:32;101674.98;;;29.19;40.78
60487;BME280;46327;39.866;-0.072;2022-09-09T08:36:59;101675.99;;;29.03;40.63
60487;BME280;46327;39.866;-0.072;2022-09-09T08:39:27;101680.38;;;29.22;40.78
60487;BME280;46327;39.866;-0.072;2022-09-09T08:42:07;101682.97;;;29.18;40.86
60487;BME280;46327;39.866;-0.072;2022-09-09T08:44:55;101686.32;;;29.07;40.66
60487;BME280;46327;39.866;-0.072;2022-09-09T08:47:33;101690.47;;;29.10;40.63
60487;BME280;46327;39.866;-0.072;2022-09-09T08:50:13;101693.42;;;29.22;40.81
60487;BME280;46327;39.866;-0.072;2022-09-09T08:52:49;101693.64;;;29.03;40.78
60487;BME280;46327;39.866;-0.072;2022-09-09T08:55:25;101695.16;;;29.38;40.68
60487;BME280;46327;39.866;-0.072;2022-09-09T08:57:55;101693.33;;;29.08;40.72
60487;BME280;46327;39.866;-0.072;2022-09-09T09:00:23;101695.80;;;28.83;41.05
60487;BME280;46327;39.866;-0.072;2022-09-09T09:02:59;101696.92;;;29.36;40.74
60487;BME280;46327;39.866;-0.072;2022-09-09T09:05:37;101700.11;;;28.98;40.88
60487;BME280;46327;39.866;-0.072;2022-09-09T09:08:17;101704.17;;;29.01;41.24
60487;BME280;46327;39.866;-0.072;2022-09-09T09:10:49;101706.82;;;29.26;40.91
60487;BME280;46327;39.866;-0.072;2022-09-09T09:13:19;101705.35;;;29.30;40.89
60487;BME280;46327;39.866;-0.072;2022-09-09T09:15:51;101705.94;;;29.06;40.94
60487;BME280;46327;39.866;-0.072;2022-09-09T09:18:20;101704.60;;;29.29;40.63
60487;BME280;46327;39.866;-0.072;2022-09-09T09:20:54;101705.79;;;29.17;40.82
60487;BME280;46327;39.866;-0.072;2022-09-09T09:23:24;101702.56;;;29.45;40.84
60487;BME280;46327;39.866;-0.072;2022-09-09T09:25:56;101704.83;;;29.58;40.68
60487;BME280;46327;39.866;-0.072;2022-09-09T09:28:27;101705.68;;;29.56;40.75
60487;BME280;46327;39.866;-0.072;2022-09-09T09:31:00;101708.19;;;29.57;40.76
60487;BME280;46327;39.866;-0.072;2022-09-09T09:33:34;101707.84;;;29.33;40.76
60487;BME280;46327;39.866;-0.072;2022-09-09T09:36:04;101713.17;;;29.29;40.83
60487;BME280;46327;39.866;-0.072;2022-09-09T09:38:31;101718.65;;;29.33;40.80
60487;BME280;46327;39.866;-0.072;2022-09-09T09:40:59;101717.51;;;29.79;40.83
60487;BME280;46327;39.866;-0.072;2022-09-09T09:43:28;101722.08;;;29.23;41.08
60487;BME280;46327;39.866;-0.072;2022-09-09T09:45:56;101725.52;;;29.60;40.88
60487;BME280;46327;39.866;-0.072;2022-09-09T09:48:25;101728.30;;;29.23;41.06
60487;BME280;46327;39.866;-0.072;2022-09-09T09:50:54;101730.92;;;29.59;40.95
60487;BME280;46327;39.866;-0.072;2022-09-09T09:53:25;101731.94;;;29.24;41.10
60487;BME280;46327;39.866;-0.072;2022-09-09T09:55:57;101733.64;;;29.54;41.07
60487;BME280;46327;39.866;-0.072;2022-09-09T09:58:26;101737.18;;;29.34;40.98
60487;BME280;46327;39.866;-0.072;2022-09-09T10:00:55;101734.95;;;29.30;41.08
60487;BME280;46327;39.866;-0.072;2022-09-09T10:03:25;101735.31;;;29.59;41.07
60487;BME280;46327;39.866;-0.072;2022-09-09T10:05:54;101732.86;;;29.86;41.01
60487;BME280;46327;39.866;-0.072;2022-09-09T10:08:23;101733.53;;;29.31;41.12
60487;BME280;46327;39.866;-0.072;2022-09-09T10:10:59;101733.10;;;29.56;41.14
60487;BME280;46327;39.866;-0.072;2022-09-09T10:13:34;101736.51;;;29.57;41.15
60487;BME280;46327;39.866;-0.072;2022-09-09T10:16:16;101734.04;;;29.24;41.27
60487;BME280;46327;39.866;-0.072;2022-09-09T10:18:57;101739.08;;;29.29;41.23
60487;BME280;46327;39.866;-0.072;2022-09-09T10:21:41;101736.49;;;29.54;41.27
60487;BME280;46327;39.866;-0.072;2022-09-09T10:24:28;101738.63;;;29.61;41.21
60487;BME280;46327;39.866;-0.072;2022-09-09T10:27:05;101734.40;;;29.64;41.18
60487;BME280;46327;39.866;-0.072;2022-09-09T10:29:49;101730.37;;;29.24;41.40
60487;BME280;46327;39.866;-0.072;2022-09-09T10:32:36;101730.84;;;29.94;41.11
60487;BME280;46327;39.866;-0.072;2022-09-09T10:35:10;101733.14;;;29.37;41.24
60487;BME280;46327;39.866;-0.072;2022-09-09T10:37:50;101729.82;;;29.36;41.28
60487;BME280;46327;39.866;-0.072;2022-09-09T10:40:30;101725.75;;;29.73;41.16
60487;BME280;46327;39.866;-0.072;2022-09-09T10:43:09;101728.29;;;29.39;41.27
60487;BME280;46327;39.866;-0.072;2022-09-09T10:45:48;101730.18;;;29.46;41.22
60487;BME280;46327;39.866;-0.072;2022-09-09T10:48:31;101732.72;;;29.44;41.26
60487;BME280;46327;39.866;-0.072;2022-09-09T10:51:22;101734.71;;;29.67;41.34
60487;BME280;46327;39.866;-0.072;2022-09-09T10:54:04;101729.00;;;29.45;41.31
60487;BME280;46327;39.866;-0.072;2022-09-09T10:56:35;101724.80;;;29.72;41.33
60487;BME280;46327;39.866;-0.072;2022-09-09T10:59:07;101722.31;;;29.75;41.31
60487;BME280;46327;39.866;-0.072;2022-09-09T11:01:42;101719.58;;;29.70;41.39
60487;BME280;46327;39.866;-0.072;2022-09-09T11:04:15;101718.80;;;29.54;41.26
60487;BME280;46327;39.866;-0.072;2022-09-09T11:06:48;101721.27;;;29.63;41.57
60487;BME280;46327;39.866;-0.072;2022-09-09T11:09:19;101717.04;;;29.44;41.47
60487;BME280;46327;39.866;-0.072;2022-09-09T11:11:52;101717.05;;;29.49;41.47
60487;BME280;46327;39.866;-0.072;2022-09-09T11:14:23;101716.74;;;29.65;41.62
60487;BME280;46327;39.866;-0.072;2022-09-09T11:16:58;101716.69;;;29.54;41.47
60487;BME280;46327;39.866;-0.072;2022-09-09T11:19:31;101710.25;;;29.40;41.64
60487;BME280;46327;39.866;-0.072;2022-09-09T11:22:03;101712.06;;;29.41;41.64
60487;BME280;46327;39.866;-0.072;2022-09-09T11:24:36;101710.48;;;29.39;41.70
60487;BME280;46327;39.866;-0.072;2022-09-09T11:27:09;101708.05;;;29.94;41.63
60487;BME280;46327;39.866;-0.072;2022-09-09T11:29:49;101707.29;;;29.45;41.65
60487;BME280;46327;39.866;-0.072;2022-09-09T11:32:33;101709.03;;;29.76;41.61
60487;BME280;46327;39.866;-0.072;2022-09-09T11:35:14;101707.80;;;29.56;41.57
60487;BME280;46327;39.866;-0.072;2022-09-09T11:38:02;101705.31;;;29.48;41.65
60487;BME280;46327;39.866;-0.072;2022-09-09T11:40:31;101706.25;;;29.58;41.63
60487;BME280;46327;39.866;-0.072;2022-09-09T11:43:04;101709.33;;;29.75;41.68
60487;BME280;46327;39.866;-0.072;2022-09-09T11:45:34;101708.95;;;29.37;41.89
60487;BME280;46327;39.866;-0.072;2022-09-09T11:48:03;101707.77;;;29.56;42.02
60487;BME280;46327;39.866;-0.072;2022-09-09T11:50:34;101703.80;;;29.35;41.96
60487;BME280;46327;39.866;-0.072;2022-09-09T11:53:34;101705.79;;;29.42;41.85
60487;BME280;46327;39.866;-0.072;2022-09-09T11:56:09;101703.05;;;29.43;41.84
60487;BME280;46327;39.866;-0.072;2022-09-09T11:58:41;101703.61;;;29.69;41.90
60487;BME280;46327;39.866;-0.072;2022-09-09T12:01:42;101704.87;;;29.66;41.98
60487;BME280;46327;39.866;-0.072;2022-09-09T12:04:28;101705.26;;;29.74;41.83
60487;BME280;46327;39.866;-0.072;2022-09-09T12:07:02;101702.03;;;29.46;41.87
60487;BME280;46327;39.866;-0.072;2022-09-09T12:09:50;101701.23;;;29.53;41.81
60487;BME280;46327;39.866;-0.072;2022-09-09T12:12:29;101702.09;;;29.44;41.95
60487;BME280;46327;39.866;-0.072;2022-09-09T12:15:02;101703.13;;;29.44;41.99
60487;BME280;46327;39.866;-0.072;2022-09-09T12:17:30;101707.00;;;29.49;41.91
60487;BME280;46327;39.866;-0.072;2022-09-09T12:20:06;101709.64;;;29.86;41.79
60487;BME280;46327;39.866;-0.072;2022-09-09T12:22:45;101708.34;;;29.54;41.92
60487;BME280;46327;39.866;-0.072;2022-09-09T12:25:26;101703.96;;;29.44;42.05
60487;BME280;46327;39.866;-0.072;2022-09-09T12:28:04;101703.23;;;29.45;42.04
60487;BME280;46327;39.866;-0.072;2022-09-09T12:30:39;101701.52;;;29.49;41.99
60487;BME280;46327;39.866;-0.072;2022-09-09T12:33:11;101695.96;;;29.74;42.04
60487;BME280;46327;39.866;-0.072;2022-09-09T12:35:39;101695.77;;;29.54;41.98
60487;BME280;46327;39.866;-0.072;2022-09-09T12:38:12;101699.62;;;29.47;42.07
60487;BME280;46327;39.866;-0.072;2022-09-09T12:40:41;101697.33;;;29.48;42.08
60487;BME280;46327;39.866;-0.072;2022-09-09T12:43:18;101700.17;;;29.68;42.19
60487;BME280;46327;39.866;-0.072;2022-09-09T12:45:46;101696.47;;;29.81;42.03
60487;BME280;46327;39.866;-0.072;2022-09-09T12:48:17;101695.75;;;29.45;42.15
60487;BME280;46327;39.866;-0.072;2022-09-09T12:50:49;101693.06;;;29.57;42.01
60487;BME280;46327;39.866;-0.072;2022-09-09T12:53:22;101692.51;;;29.74;42.16
60487;BME280;46327;39.866;-0.072;2022-09-09T12:55:53;101692.28;;;29.37;42.36
60487;BME280;46327;39.866;-0.072;2022-09-09T12:58:21;101689.31;;;29.34;42.41
60487;BME280;46327;39.866;-0.072;2022-09-09T13:00:51;101688.74;;;29.38;42.36
60487;BME280;46327;39.866;-0.072;2022-09-09T13:03:20;101681.22;;;29.68;42.32